Time;durP1;ratioP1;P1;durP2;ratioP2;P2;SDS_P1;SDS_P2;PMS_P1;PMS_P2;Temp;Humidity;BMP_temperature;BMP_pressure;BME280_temperature;BME280_humidity;BME280_pressure;Samples;Min_cycle;Max_cycle;Signal;HPM_P1;HPM_P2
2021/04/27 00:01:36;;;;;;;13.60;5.38;;;11.40;60.60;;;;;;5007776;28;20048;-76
2021/04/27 00:04:02;;;;;;;18.35;5.70;;;11.30;60.80;;;;;;5017125;28;20042;-77
2021/04/27 00:06:27;;;;;;;17.17;5.82;;;11.20;61.40;;;;;;5015613;28;20061;-76
2021/04/27 00:08:53;;;;;;;15.05;6.40;;;11.20;61.20;;;;;;5015950;28;20046;-76
2021/04/27 00:11:18;;;;;;;13.05;5.32;;;11.20;61.00;;;;;;5015798;28;20068;-77
2021/04/27 00:13:44;;;;;;;13.65;5.85;;;11.10;61.20;;;;;;5017082;28;20030;-76
2021/04/27 00:16:10;;;;;;;14.00;5.30;;;11.10;60.90;;;;;;5016691;28;20044;-76
2021/04/27 00:18:36;;;;;;;14.80;5.82;;;11.10;61.60;;;;;;5016820;28;20022;-76
2021/04/27 00:21:03;;;;;;;13.63;6.10;;;11.00;61.60;;;;;;5014733;28;20404;-77
2021/04/27 00:23:28;;;;;;;11.27;4.88;;;11.00;61.90;;;;;;5016887;28;20102;-77
2021/04/27 00:25:54;;;;;;;12.60;5.18;;;11.00;61.20;;;;;;5015912;28;20049;-77
2021/04/27 00:28:20;;;;;;;9.43;5.38;;;11.00;61.60;;;;;;5015722;28;20025;-76
2021/04/27 00:30:46;;;;;;;12.00;6.20;;;11.00;62.10;;;;;;5015303;28;20064;-76
2021/04/27 00:33:11;;;;;;;11.98;6.47;;;11.00;62.20;;;;;;5016750;28;20408;-76
2021/04/27 00:35:37;;;;;;;11.75;6.07;;;10.90;62.10;;;;;;5014190;28;20099;-76
2021/04/27 00:38:03;;;;;;;10.82;5.30;;;10.90;61.70;;;;;;5015461;28;20041;-76
2021/04/27 00:40:31;;;;;;;14.75;5.70;;;10.90;62.00;;;;;;5016300;28;20820;-77
2021/04/27 00:42:57;;;;;;;10.35;5.63;;;10.90;62.00;;;;;;5015052;28;20042;-76
2021/04/27 00:45:25;;;;;;;15.00;5.88;;;10.90;62.30;;;;;;5015630;28;20108;-76
2021/04/27 00:47:52;;;;;;;10.98;5.60;;;10.80;62.50;;;;;;5016285;28;20029;-76
2021/04/27 00:50:39;;;;;;;17.98;6.63;;;10.80;62.20;;;;;;5016269;28;20057;-76
2021/04/27 00:53:05;;;;;;;13.02;6.32;;;10.70;62.90;;;;;;5015292;28;20037;-76
2021/04/27 00:55:31;;;;;;;12.88;5.88;;;10.70;62.50;;;;;;5014108;28;20029;-77
2021/04/27 00:58:01;;;;;;;11.95;5.53;;;10.70;62.50;;;;;;4998371;28;20033;-76
2021/04/27 01:00:35;;;;;;;11.77;6.38;;;10.70;63.00;;;;;;4995090;28;20026;-76
2021/04/27 01:03:03;;;;;;;13.45;6.25;;;10.70;62.80;;;;;;5001491;28;20405;-76
2021/04/27 01:05:30;;;;;;;13.18;5.93;;;10.70;63.10;;;;;;4996338;28;20044;-76
2021/04/27 01:08:11;;;;;;;12.98;5.93;;;10.60;63.40;;;;;;4995005;28;20026;-76
2021/04/27 01:11:00;;;;;;;9.98;6.45;;;10.60;63.70;;;;;;4994861;28;20035;-76
2021/04/27 01:13:42;;;;;;;12.63;6.18;;;10.50;64.20;;;;;;4995338;28;20046;-76
2021/04/27 01:16:10;;;;;;;11.07;7.03;;;10.40;64.10;;;;;;5014898;28;20041;-76
2021/04/27 01:18:42;;;;;;;15.05;6.28;;;10.50;64.00;;;;;;5014592;28;20025;-76
2021/04/27 01:21:09;;;;;;;16.05;6.47;;;10.50;63.90;;;;;;5015779;28;20037;-76
2021/04/27 01:23:41;;;;;;;19.52;6.57;;;10.50;63.30;;;;;;5014385;28;20786;-76
2021/04/27 01:26:19;;;;;;;9.70;6.68;;;10.50;63.90;;;;;;5014477;28;20047;-76
2021/04/27 01:28:46;;;;;;;13.23;6.00;;;10.40;64.40;;;;;;5015817;28;20033;-76
2021/04/27 01:31:12;;;;;;;14.77;7.07;;;10.30;64.80;;;;;;5015616;28;20158;-76
2021/04/27 01:33:38;;;;;;;13.20;7.28;;;10.30;64.80;;;;;;5014648;28;20113;-76
2021/04/27 01:36:05;;;;;;;12.93;6.45;;;10.30;65.00;;;;;;5015683;28;20037;-76
2021/04/27 01:38:32;;;;;;;15.35;7.80;;;10.30;63.70;;;;;;5015585;28;20026;-77
2021/04/27 01:40:58;;;;;;;22.08;7.25;;;10.20;64.70;;;;;;5015481;28;20030;-77
2021/04/27 01:43:25;;;;;;;13.77;7.00;;;10.20;65.70;;;;;;5014532;28;20055;-77
2021/04/27 01:46:09;;;;;;;14.38;7.28;;;10.20;65.40;;;;;;5015405;28;20037;-76
2021/04/27 01:48:37;;;;;;;16.83;6.68;;;10.20;64.30;;;;;;5014342;28;20026;-77
2021/04/27 01:51:05;;;;;;;14.85;7.30;;;10.20;64.70;;;;;;5014164;28;20033;-76
2021/04/27 01:53:31;;;;;;;14.23;7.32;;;10.10;65.00;;;;;;5015534;28;20093;-77
2021/04/27 01:55:57;;;;;;;17.98;7.60;;;10.10;65.50;;;;;;5015307;28;20030;-76
2021/04/27 01:58:23;;;;;;;11.30;7.53;;;10.10;65.50;;;;;;5011511;28;20041;-76
2021/04/27 02:00:49;;;;;;;13.07;7.85;;;10.00;63.90;;;;;;4995449;28;20030;-76
2021/04/27 02:03:15;;;;;;;13.38;8.63;;;9.90;66.20;;;;;;4994468;28;20511;-76
2021/04/27 02:05:41;;;;;;;17.20;8.25;;;9.90;66.30;;;;;;5008655;28;20030;-76
2021/04/27 02:08:07;;;;;;;14.70;7.57;;;9.80;66.60;;;;;;5015219;28;20030;-76
2021/04/27 02:10:33;;;;;;;12.05;7.15;;;9.80;67.10;;;;;;5015302;28;20060;-76
2021/04/27 02:13:08;;;;;;;16.05;7.50;;;9.80;65.60;;;;;;5015361;28;20066;-76
2021/04/27 02:15:34;;;;;;;12.52;6.93;;;9.80;64.30;;;;;;5009753;28;20038;-76
2021/04/27 02:18:03;;;;;;;14.10;7.93;;;9.80;65.70;;;;;;4995760;28;20034;-76
2021/04/27 02:20:30;;;;;;;14.48;6.75;;;9.90;66.10;;;;;;5001635;28;20061;-76
2021/04/27 02:22:57;;;;;;;12.68;7.80;;;9.80;65.90;;;;;;5015183;28;20022;-76
2021/04/27 02:25:23;;;;;;;9.88;7.05;;;9.80;65.70;;;;;;5013954;28;20038;-76
2021/04/27 02:27:52;;;;;;;16.02;6.88;;;9.80;66.30;;;;;;5015188;28;20392;-76
2021/04/27 02:30:20;;;;;;;16.23;7.47;;;9.70;66.20;;;;;;5013663;28;20030;-76
2021/04/27 02:32:47;;;;;;;12.35;7.90;;;9.70;66.60;;;;;;5014028;28;20065;-76
2021/04/27 02:35:15;;;;;;;14.95;7.20;;;9.70;65.30;;;;;;5013411;28;20419;-76
2021/04/27 02:37:43;;;;;;;15.75;8.35;;;9.80;64.60;;;;;;5013961;28;20030;-76
2021/04/27 02:40:11;;;;;;;15.75;7.75;;;9.70;66.10;;;;;;5015097;28;20033;-77
2021/04/27 02:42:38;;;;;;;17.00;8.05;;;9.70;66.00;;;;;;5013791;28;20033;-76
2021/04/27 02:45:08;;;;;;;17.88;8.00;;;9.60;65.50;;;;;;5013925;28;20034;-76
2021/04/27 02:47:35;;;;;;;12.60;7.65;;;9.60;65.40;;;;;;5015103;28;20022;-77
2021/04/27 02:50:01;;;;;;;14.73;8.38;;;9.50;66.70;;;;;;5014929;28;20136;-76
2021/04/27 02:52:27;;;;;;;15.18;9.02;;;9.50;66.20;;;;;;5014932;28;20101;-76
2021/04/27 02:54:53;;;;;;;15.95;8.00;;;9.50;66.50;;;;;;5013877;28;20034;-76
2021/04/27 02:57:19;;;;;;;15.48;8.45;;;9.40;66.60;;;;;;5013625;28;20080;-76
2021/04/27 02:59:44;;;;;;;12.18;7.47;;;9.40;66.80;;;;;;5003396;28;20089;-76
2021/04/27 03:02:10;;;;;;;12.90;7.57;;;9.40;66.40;;;;;;4998574;28;20014;-76
2021/04/27 03:04:36;;;;;;;12.65;7.70;;;9.30;66.50;;;;;;4999467;28;20030;-76
2021/04/27 03:07:02;;;;;;;12.15;7.68;;;9.20;68.20;;;;;;5016896;28;20058;-76
2021/04/27 03:09:28;;;;;;;13.48;7.68;;;9.20;68.50;;;;;;5017579;28;20032;-77
2021/04/27 03:11:53;;;;;;;12.38;8.25;;;9.20;68.30;;;;;;5017982;28;20025;-76
2021/04/27 03:14:19;;;;;;;11.38;7.72;;;9.20;67.60;;;;;;5015811;28;20500;-76
2021/04/27 03:16:45;;;;;;;16.95;7.60;;;9.20;66.90;;;;;;5018050;28;20034;-76
2021/04/27 03:19:10;;;;;;;15.27;8.02;;;9.20;68.10;;;;;;5016931;28;20484;-76
2021/04/27 03:21:36;;;;;;;14.65;7.47;;;9.20;68.30;;;;;;5017975;28;20056;-77
2021/04/27 03:24:02;;;;;;;15.80;7.75;;;9.20;67.30;;;;;;5016604;28;20392;-76
2021/04/27 03:26:28;;;;;;;17.65;7.35;;;9.10;68.30;;;;;;5016613;28;20030;-76
2021/04/27 03:28:53;;;;;;;12.50;7.03;;;9.00;70.00;;;;;;5017915;28;20044;-77
2021/04/27 03:31:19;;;;;;;15.90;8.32;;;8.80;71.20;;;;;;5017729;28;20017;-76
2021/04/27 03:33:45;;;;;;;11.57;7.32;;;8.70;71.70;;;;;;5017692;28;20038;-76
2021/04/27 03:36:11;;;;;;;10.32;6.45;;;8.60;72.50;;;;;;5016885;28;20113;-76
2021/04/27 03:38:37;;;;;;;17.13;8.48;;;8.60;72.50;;;;;;5017284;28;20161;-76
2021/04/27 03:41:02;;;;;;;13.10;7.50;;;8.60;72.50;;;;;;5016046;28;20449;-76
2021/04/27 03:43:28;;;;;;;12.57;8.20;;;8.70;71.20;;;;;;5017624;28;20040;-76
2021/04/27 03:45:54;;;;;;;12.07;7.38;;;8.80;71.30;;;;;;5016162;28;20448;-76
2021/04/27 03:48:21;;;;;;;14.63;7.28;;;8.70;71.50;;;;;;5016163;28;20037;-76
2021/04/27 03:50:48;;;;;;;10.75;7.25;;;8.80;71.20;;;;;;5016333;28;20065;-76
2021/04/27 03:53:14;;;;;;;17.05;8.05;;;8.80;70.80;;;;;;5017306;28;20026;-76
2021/04/27 11:55:41;;;;;;;14.60;10.13;;;20.50;36.70;;;;;;4906472;27;20413;-77
2021/04/27 11:58:16;;;;;;;18.40;10.20;;;20.60;37.20;;;;;;5002523;28;20046;-75
2021/04/27 12:00:49;;;;;;;13.48;10.35;;;20.80;36.90;;;;;;5025384;28;20036;-76
2021/04/27 12:03:41;;;;;;;13.65;10.13;;;21.10;36.30;;;;;;5021465;28;20030;-76
2021/04/27 12:06:09;;;;;;;13.23;9.95;;;21.40;36.10;;;;;;4992777;28;20023;-77
2021/04/27 12:08:44;;;;;;;13.85;10.07;;;21.60;34.30;;;;;;5000344;28;20034;-77
2021/04/27 12:11:13;;;;;;;16.20;11.30;;;21.70;36.10;;;;;;5007753;28;20022;-77
2021/04/27 12:13:53;;;;;;;15.45;11.48;;;21.70;34.90;;;;;;5009984;28;20034;-77
2021/04/27 12:16:21;;;;;;;13.35;11.05;;;21.60;35.70;;;;;;5011208;28;20052;-76
2021/04/27 12:18:55;;;;;;;15.27;10.15;;;21.60;35.10;;;;;;5011751;28;20105;-76
2021/04/27 12:21:41;;;;;;;16.35;11.60;;;21.70;34.50;;;;;;5011782;28;20026;-76
2021/04/27 12:24:08;;;;;;;15.43;12.02;;;21.70;35.70;;;;;;4991251;28;20042;-76
2021/04/27 12:26:35;;;;;;;14.40;11.18;;;21.60;35.60;;;;;;5009633;28;20489;-76
2021/04/27 12:29:01;;;;;;;18.77;11.65;;;21.70;35.90;;;;;;5010994;28;20034;-76
2021/04/27 12:31:28;;;;;;;15.18;10.75;;;21.70;35.50;;;;;;4995706;28;20132;-76
2021/04/27 12:33:59;;;;;;;14.80;10.75;;;21.70;35.60;;;;;;4990746;28;20125;-76
2021/04/27 12:36:35;;;;;;;15.23;11.23;;;21.70;35.70;;;;;;5008770;28;20077;-76
2021/04/27 12:39:05;;;;;;;15.65;11.60;;;21.70;35.40;;;;;;5005828;28;20029;-76
2021/04/27 12:41:40;;;;;;;20.17;11.27;;;21.60;35.10;;;;;;4992137;28;20030;-76
2021/04/27 12:44:25;;;;;;;17.10;10.70;;;21.60;35.50;;;;;;5006457;28;20091;-75
2021/04/27 12:46:51;;;;;;;13.05;10.52;;;21.70;34.90;;;;;;5011652;28;20045;-76
2021/04/27 12:49:22;;;;;;;15.52;10.57;;;21.60;36.10;;;;;;5010060;28;20026;-76
2021/04/27 12:52:02;;;;;;;15.95;11.05;;;21.60;35.20;;;;;;5011481;28;20053;-76
2021/04/27 12:54:29;;;;;;;15.95;11.43;;;21.60;35.50;;;;;;4991619;28;20046;-76
2021/04/27 12:57:22;;;;;;;14.60;10.75;;;21.70;35.40;;;;;;5011379;28;20022;-75
2021/04/27 13:00:00;;;;;;;15.25;11.52;;;21.60;35.20;;;;;;5005997;28;20035;-76
2021/04/27 13:02:26;;;;;;;17.08;11.75;;;21.50;36.70;;;;;;4991595;28;20062;-76
2021/04/27 13:04:57;;;;;;;18.10;11.77;;;21.60;36.60;;;;;;4996589;28;20532;-76
2021/04/27 13:07:28;;;;;;;13.73;11.18;;;21.60;36.70;;;;;;4997656;28;20541;-74
2021/04/27 13:09:56;;;;;;;13.98;11.30;;;21.70;37.00;;;;;;4997086;28;20045;-77
2021/04/27 13:12:22;;;;;;;13.45;10.70;;;21.70;36.20;;;;;;4990120;28;20034;-78
2021/04/27 13:14:51;;;;;;;14.27;10.82;;;21.70;36.30;;;;;;4997512;28;20126;-76
2021/04/27 13:17:24;;;;;;;15.10;12.07;;;21.70;36.30;;;;;;4995828;28;20022;-77
2021/04/27 13:19:55;;;;;;;20.58;12.85;;;21.60;36.00;;;;;;4997828;28;20030;-77
2021/04/27 13:22:36;;;;;;;17.23;11.55;;;21.50;35.80;;;;;;4996480;28;20034;-77
2021/04/27 13:25:13;;;;;;;16.45;11.70;;;21.50;37.00;;;;;;4983766;28;20094;-77
2021/04/27 13:27:47;;;;;;;17.45;12.20;;;21.50;36.60;;;;;;4977962;28;20054;-78
2021/04/27 14:28:18;;;;;;;16.13;11.23;;;20.20;40.30;;;;;;5067724;28;20966;-75
2021/04/27 14:30:44;;;;;;;14.35;10.25;;;20.20;39.90;;;;;;5068666;28;20041;-77
2021/04/27 14:33:10;;;;;;;16.92;10.93;;;20.30;40.50;;;;;;5068781;28;20092;-77
2021/04/27 14:35:37;;;;;;;15.57;10.98;;;20.70;41.10;;;;;;5069259;28;20766;-76
2021/04/27 14:38:04;;;;;;;16.48;11.02;;;20.80;39.40;;;;;;5068853;28;20032;-77
2021/04/27 14:40:31;;;;;;;14.95;10.32;;;21.00;39.60;;;;;;5071147;28;20834;-77
2021/04/27 14:42:57;;;;;;;13.68;10.43;;;21.10;39.40;;;;;;5068829;28;20029;-77
2021/04/27 14:45:24;;;;;;;15.40;10.70;;;21.10;37.80;;;;;;5070278;28;20032;-77
2021/04/27 14:47:52;;;;;;;20.08;11.70;;;21.20;38.30;;;;;;5071381;28;20447;-76
2021/04/27 14:50:20;;;;;;;15.75;11.65;;;21.20;39.30;;;;;;5069859;28;20075;-76
2021/04/27 14:52:46;;;;;;;14.50;10.52;;;21.10;39.90;;;;;;5068628;28;20070;-77
2021/04/27 14:55:14;;;;;;;17.27;10.88;;;21.20;40.10;;;;;;5070193;28;20029;-75
2021/04/27 14:57:41;;;;;;;13.82;10.52;;;21.20;39.10;;;;;;5069365;28;20053;-76
2021/04/27 15:00:10;;;;;;;15.60;10.50;;;21.30;38.50;;;;;;5068287;28;20032;-75
2021/04/27 15:02:36;;;;;;;17.60;11.60;;;21.30;38.70;;;;;;5068427;28;20103;-76
2021/04/27 15:05:07;;;;;;;18.70;11.63;;;21.30;38.70;;;;;;5070422;28;20395;-76
2021/04/27 15:07:33;;;;;;;19.17;11.07;;;21.20;40.00;;;;;;5070930;28;20058;-76
2021/04/27 15:09:59;;;;;;;14.07;10.45;;;21.20;39.10;;;;;;5069265;28;20486;-75
2021/04/27 15:12:24;;;;;;;11.77;10.02;;;21.20;39.50;;;;;;5070033;28;20025;-76
2021/04/27 15:14:50;;;;;;;15.30;10.15;;;21.30;38.80;;;;;;5070981;28;20089;-76
2021/04/27 15:17:16;;;;;;;13.20;11.25;;;21.30;38.70;;;;;;5067584;28;20097;-76
2021/04/27 15:19:43;;;;;;;15.00;10.00;;;21.20;38.70;;;;;;5069536;28;20050;-76
2021/04/27 15:22:09;;;;;;;14.85;10.15;;;21.20;38.70;;;;;;5069827;28;20028;-75
2021/04/27 15:24:34;;;;;;;14.13;9.68;;;21.10;38.40;;;;;;5066743;28;20636;-76
2021/04/27 15:27:02;;;;;;;15.95;9.98;;;21.20;38.50;;;;;;5067725;28;20140;-76
2021/04/27 15:29:28;;;;;;;15.65;9.80;;;21.20;38.30;;;;;;5071876;28;20379;-76
2021/04/27 15:31:54;;;;;;;14.50;10.02;;;21.10;39.00;;;;;;5072239;28;20021;-76
2021/04/27 15:34:24;;;;;;;12.55;9.50;;;21.00;39.10;;;;;;5068089;28;20079;-76
2021/04/27 15:36:52;;;;;;;15.88;9.90;;;21.10;39.00;;;;;;5070171;28;20032;-76
2021/04/27 15:39:17;;;;;;;14.65;10.82;;;21.00;39.50;;;;;;5058640;28;20723;-76
2021/04/27 15:41:43;;;;;;;12.32;10.13;;;21.00;39.90;;;;;;5059498;28;20032;-75
2021/04/27 15:44:11;;;;;;;14.73;9.63;;;21.00;40.20;;;;;;5056344;28;20060;-76
2021/04/27 15:46:39;;;;;;;12.70;9.45;;;21.00;39.20;;;;;;5055976;28;20029;-76
2021/04/27 15:49:05;;;;;;;14.38;10.18;;;21.10;39.10;;;;;;5055930;28;20103;-76
2021/04/27 15:51:31;;;;;;;15.80;9.95;;;21.00;40.10;;;;;;5055551;28;20055;-76
2021/04/27 15:53:58;;;;;;;14.70;10.60;;;20.80;40.60;;;;;;5055995;28;20051;-76
2021/04/27 15:56:24;;;;;;;14.32;10.05;;;20.80;40.30;;;;;;5053406;28;20039;-76
2021/04/27 15:58:50;;;;;;;15.20;9.68;;;20.80;40.90;;;;;;5054353;28;20021;-76
2021/04/27 16:01:15;;;;;;;15.00;10.23;;;20.80;41.00;;;;;;5054791;28;20091;-76
2021/04/27 16:03:42;;;;;;;15.68;10.98;;;20.80;40.80;;;;;;5043558;28;20029;-76
2021/04/27 16:06:09;;;;;;;14.32;9.85;;;20.80;40.50;;;;;;5054347;28;20035;-76
2021/04/27 16:08:35;;;;;;;13.02;10.70;;;20.70;40.80;;;;;;5050712;28;20031;-76
2021/04/27 16:11:00;;;;;;;17.02;10.57;;;20.70;40.40;;;;;;5055821;28;20017;-76
2021/04/27 16:13:27;;;;;;;15.90;9.88;;;20.80;40.50;;;;;;5056290;28;20079;-76
2021/04/27 16:15:53;;;;;;;12.77;9.95;;;20.80;40.50;;;;;;5050785;28;20096;-76
2021/04/27 16:18:19;;;;;;;13.90;10.07;;;20.70;40.20;;;;;;5054014;28;20060;-77
2021/04/27 16:20:45;;;;;;;13.68;9.55;;;20.60;39.80;;;;;;5056539;28;20090;-77
2021/04/27 16:23:11;;;;;;;16.27;10.25;;;20.60;40.20;;;;;;5056373;28;20048;-77
2021/04/27 16:25:36;;;;;;;13.02;9.70;;;20.50;39.90;;;;;;5055015;28;20094;-77
2021/04/27 16:28:02;;;;;;;14.85;9.93;;;20.50;40.20;;;;;;5055861;28;20045;-76
2021/04/27 16:30:28;;;;;;;15.02;9.48;;;20.50;40.40;;;;;;5053535;28;20060;-76
2021/04/27 16:32:54;;;;;;;14.38;9.77;;;20.50;40.40;;;;;;5055344;28;20025;-76
2021/04/27 16:35:19;;;;;;;15.40;9.65;;;20.50;40.10;;;;;;5055232;28;20036;-76
2021/04/27 16:37:45;;;;;;;13.15;9.77;;;20.50;40.30;;;;;;5055367;28;20031;-76
2021/04/27 16:40:12;;;;;;;13.90;10.65;;;20.40;40.90;;;;;;5047659;28;20162;-76
2021/04/27 16:42:38;;;;;;;16.45;10.82;;;20.30;41.00;;;;;;5056007;28;20025;-76
2021/04/27 16:45:06;;;;;;;16.33;11.02;;;20.30;41.50;;;;;;5038234;28;20488;-76
2021/04/27 16:47:33;;;;;;;15.98;10.50;;;20.30;41.30;;;;;;5036618;28;20028;-76
2021/04/27 16:49:58;;;;;;;16.75;10.32;;;20.20;41.60;;;;;;5033874;28;20026;-76
2021/04/27 16:52:24;;;;;;;13.52;9.70;;;20.20;41.30;;;;;;5053340;28;20030;-76
2021/04/27 16:54:50;;;;;;;15.20;10.68;;;20.10;41.70;;;;;;5054277;28;20032;-77
2021/04/27 16:57:15;;;;;;;14.82;10.02;;;20.10;41.60;;;;;;5054059;28;20029;-78
2021/04/27 19:23:52;;;;;;;15.25;10.63;;;15.10;55.90;;;;;;5034511;27;20967;-76
2021/04/27 19:26:18;;;;;;;16.08;11.38;;;14.90;56.70;;;;;;5025591;28;20135;-76
2021/04/27 19:28:44;;;;;;;20.17;11.85;;;15.00;55.50;;;;;;5024761;28;20680;-75
2021/04/27 19:31:10;;;;;;;18.88;11.75;;;15.20;55.30;;;;;;5020020;28;20030;-75
2021/04/27 19:33:36;;;;;;;16.92;11.27;;;15.30;54.60;;;;;;5023322;28;20045;-75
2021/04/27 19:36:02;;;;;;;15.50;10.32;;;15.40;54.00;;;;;;5025575;28;20019;-74
2021/04/27 19:38:28;;;;;;;18.38;11.30;;;15.60;53.50;;;;;;5060443;28;20037;-75
2021/04/27 19:40:53;;;;;;;16.83;10.30;;;15.70;53.90;;;;;;5020256;28;20059;-75
2021/04/27 19:43:39;;;;;;;17.85;11.00;;;15.80;53.00;;;;;;5060155;28;20030;-76
2021/04/27 19:46:05;;;;;;;20.23;11.68;;;15.60;53.30;;;;;;5019794;28;20033;-76
2021/04/27 19:48:32;;;;;;;17.38;11.70;;;15.60;53.40;;;;;;5024013;28;20026;-75
2021/04/27 19:50:58;;;;;;;18.45;11.73;;;15.50;53.70;;;;;;5029682;28;20021;-76
2021/04/27 19:53:24;;;;;;;19.80;11.93;;;15.40;53.70;;;;;;5016544;28;20041;-75
2021/04/27 19:55:50;;;;;;;17.65;10.80;;;15.40;53.80;;;;;;5027261;28;20103;-76
2021/04/27 19:58:16;;;;;;;20.20;12.02;;;15.30;54.00;;;;;;5019016;28;20065;-75
2021/04/27 20:00:44;;;;;;;16.67;11.10;;;15.30;53.90;;;;;;5039865;28;20053;-74
2021/04/27 20:03:10;;;;;;;24.50;11.80;;;15.20;53.70;;;;;;5027171;28;20034;-75
2021/04/27 20:05:36;;;;;;;18.20;10.30;;;15.30;53.50;;;;;;5023404;28;20591;-75
2021/04/27 20:08:02;;;;;;;19.58;11.68;;;15.30;53.60;;;;;;5028874;28;20056;-75
2021/04/27 20:10:29;;;;;;;17.08;11.02;;;15.20;53.80;;;;;;5026547;28;20136;-75
2021/04/27 20:12:54;;;;;;;20.27;11.82;;;15.10;53.90;;;;;;5028814;28;20507;-75
2021/04/27 20:15:22;;;;;;;19.83;10.85;;;15.00;54.10;;;;;;5030123;28;20037;-76
2021/04/27 20:17:48;;;;;;;17.35;11.13;;;14.90;54.30;;;;;;5028252;28;20476;-76
2021/04/27 20:20:15;;;;;;;20.13;11.57;;;14.90;54.50;;;;;;5029092;28;20018;-75
2021/04/27 20:22:40;;;;;;;19.63;12.13;;;14.80;54.40;;;;;;5023737;28;20084;-76
2021/04/27 20:25:09;;;;;;;16.25;9.60;;;14.70;54.60;;;;;;5029856;28;20022;-75
2021/04/27 20:27:35;;;;;;;20.83;11.07;;;14.60;54.80;;;;;;5041802;28;20069;-75
2021/04/27 20:30:01;;;;;;;19.92;11.02;;;14.60;54.80;;;;;;5029534;28;20018;-75
2021/04/27 20:32:26;;;;;;;17.40;10.48;;;14.50;55.00;;;;;;5028777;28;20032;-76
2021/04/27 20:34:55;;;;;;;17.30;10.95;;;14.50;55.40;;;;;;5018066;28;20077;-76
2021/04/27 20:37:21;;;;;;;17.52;10.82;;;14.50;55.10;;;;;;5004860;28;20045;-74
2021/04/27 20:39:46;;;;;;;16.85;11.10;;;14.40;54.80;;;;;;5045014;28;20034;-74
2021/04/27 20:42:12;;;;;;;18.98;11.52;;;14.30;55.00;;;;;;5014675;28;20030;-74
2021/04/27 20:44:38;;;;;;;15.80;11.15;;;14.30;55.30;;;;;;5017362;28;20014;-74
2021/04/27 20:47:05;;;;;;;17.08;10.55;;;14.20;55.60;;;;;;5032898;28;20060;-75
2021/04/27 20:49:31;;;;;;;17.35;11.25;;;14.20;55.40;;;;;;5032889;28;20029;-74
2021/04/27 20:51:56;;;;;;;13.07;10.10;;;14.10;55.40;;;;;;5032172;28;20037;-74
2021/04/27 20:54:22;;;;;;;13.90;10.10;;;14.00;55.70;;;;;;5017792;28;20026;-74
2021/04/27 20:56:48;;;;;;;18.90;10.35;;;14.00;55.80;;;;;;5015809;28;20538;-75
2021/04/27 20:59:13;;;;;;;16.73;10.23;;;13.90;55.90;;;;;;5016496;28;20374;-74
2021/04/27 21:01:39;;;;;;;17.67;10.68;;;13.80;56.40;;;;;;5016414;28;20036;-74
2021/04/27 21:04:05;;;;;;;21.33;10.70;;;13.70;56.60;;;;;;5012307;28;20026;-74
2021/04/27 21:06:31;;;;;;;19.00;10.48;;;13.70;56.60;;;;;;5014121;28;20037;-74
2021/04/27 21:08:59;;;;;;;16.55;10.52;;;13.70;56.40;;;;;;5031189;28;20022;-74
2021/04/27 21:11:24;;;;;;;16.50;9.80;;;13.60;57.00;;;;;;5031988;28;20026;-74
2021/04/27 21:13:50;;;;;;;15.52;9.95;;;13.50;57.20;;;;;;5017555;28;20037;-75
2021/04/27 21:16:16;;;;;;;15.20;10.30;;;13.50;57.10;;;;;;5017414;28;20167;-74
2021/04/27 21:18:41;;;;;;;18.70;9.80;;;13.40;56.90;;;;;;5016054;28;20026;-74
2021/04/27 21:21:07;;;;;;;14.60;10.50;;;13.50;56.80;;;;;;5016769;28;20121;-74
2021/04/27 21:23:33;;;;;;;16.38;9.65;;;13.60;56.20;;;;;;5017275;28;20085;-74
2021/04/27 21:25:58;;;;;;;15.50;9.65;;;13.50;56.40;;;;;;5016352;28;20164;-74
2021/04/27 21:28:24;;;;;;;18.50;10.05;;;13.50;56.30;;;;;;5017292;28;20100;-74
2021/04/27 21:30:50;;;;;;;13.90;9.18;;;13.40;56.60;;;;;;5017402;28;20542;-74
2021/04/27 21:33:15;;;;;;;16.90;9.30;;;13.30;56.90;;;;;;5015187;28;20440;-74
2021/04/27 21:35:41;;;;;;;12.95;8.43;;;13.20;56.80;;;;;;5032361;28;20030;-75
2021/04/27 21:38:07;;;;;;;15.07;9.55;;;13.20;56.70;;;;;;5017023;28;20441;-75
2021/04/27 21:40:33;;;;;;;15.23;9.10;;;13.10;56.70;;;;;;5017770;28;20030;-74
2021/04/27 21:42:58;;;;;;;13.65;8.68;;;13.20;56.40;;;;;;5016020;28;20033;-74
2021/04/27 21:45:27;;;;;;;14.10;9.00;;;13.20;56.50;;;;;;5031306;28;20104;-74
2021/04/27 21:47:54;;;;;;;16.48;9.40;;;13.20;56.50;;;;;;5016779;28;20021;-74
2021/04/27 21:50:20;;;;;;;18.33;9.02;;;13.10;56.50;;;;;;5032025;28;20030;-74
2021/04/27 21:52:46;;;;;;;12.73;9.25;;;13.00;56.90;;;;;;5016310;28;20083;-75
2021/04/27 21:55:13;;;;;;;17.80;8.90;;;12.90;57.00;;;;;;5016729;28;20038;-74
2021/04/27 21:57:38;;;;;;;13.77;8.50;;;12.90;56.90;;;;;;5011752;28;20054;-74
2021/04/27 22:00:16;;;;;;;14.73;8.75;;;12.90;57.00;;;;;;5013444;28;20030;-74
2021/04/27 22:02:41;;;;;;;12.10;8.07;;;12.90;57.10;;;;;;5031630;28;20030;-74
2021/04/27 22:05:09;;;;;;;16.95;9.32;;;12.90;57.50;;;;;;5015991;28;20037;-74
2021/04/27 22:07:34;;;;;;;17.58;8.52;;;12.80;57.80;;;;;;5015128;28;20050;-74
2021/04/27 22:10:00;;;;;;;11.85;8.45;;;12.80;57.60;;;;;;5016635;28;20065;-74
2021/04/27 22:12:26;;;;;;;15.80;8.70;;;12.90;57.60;;;;;;5016345;28;20057;-74
2021/04/27 22:14:51;;;;;;;12.77;8.13;;;12.80;57.80;;;;;;5014110;28;20034;-74
2021/04/27 22:17:17;;;;;;;13.93;8.25;;;12.80;58.00;;;;;;5014970;28;20025;-74
2021/04/27 22:19:43;;;;;;;14.63;8.15;;;12.80;57.80;;;;;;5015545;28;20040;-74
2021/04/27 22:22:08;;;;;;;14.63;7.53;;;12.70;58.50;;;;;;5016196;28;20394;-74
2021/04/27 22:24:34;;;;;;;16.40;8.23;;;12.70;58.60;;;;;;5013054;28;20026;-74
2021/04/27 22:27:00;;;;;;;13.80;8.63;;;12.60;58.90;;;;;;5015827;28;20084;-74
2021/04/27 22:29:25;;;;;;;13.55;8.40;;;12.60;59.20;;;;;;5016133;28;20030;-74
2021/04/27 22:31:51;;;;;;;14.20;8.68;;;12.60;58.60;;;;;;5015553;28;20030;-74
2021/04/27 22:34:17;;;;;;;16.80;8.23;;;12.70;58.70;;;;;;5015982;28;20391;-73
2021/04/27 22:36:42;;;;;;;12.48;7.65;;;12.70;58.00;;;;;;5015985;28;20040;-74
2021/04/27 22:39:08;;;;;;;16.88;8.60;;;12.70;58.40;;;;;;5015750;28;20040;-73
2021/04/27 22:41:34;;;;;;;14.00;8.18;;;12.60;58.80;;;;;;5010633;28;20033;-74
2021/04/27 22:43:59;;;;;;;13.05;8.05;;;12.50;58.90;;;;;;5009716;28;20026;-74
2021/04/27 22:46:26;;;;;;;13.90;9.55;;;12.50;59.40;;;;;;5013857;28;20022;-74
2021/04/27 22:48:51;;;;;;;15.43;9.05;;;12.40;59.70;;;;;;4996464;28;20022;-75
2021/04/27 22:51:17;;;;;;;17.08;9.43;;;12.30;59.70;;;;;;5018509;28;20033;-74
2021/04/27 22:53:42;;;;;;;13.50;8.52;;;12.30;59.80;;;;;;5014321;28;20034;-74
2021/04/27 22:56:08;;;;;;;13.10;8.18;;;12.30;59.90;;;;;;5014976;28;20034;-74
2021/04/27 22:58:34;;;;;;;15.75;8.80;;;12.20;60.30;;;;;;5015212;28;20022;-74
2021/04/27 23:01:00;;;;;;;13.48;8.98;;;12.10;62.20;;;;;;5012901;28;20125;-74
2021/04/27 23:03:25;;;;;;;18.70;9.40;;;12.00;61.40;;;;;;4995816;28;20033;-74
2021/04/27 23:05:51;;;;;;;15.52;9.07;;;12.00;61.30;;;;;;5009051;28;20034;-74
2021/04/27 23:08:17;;;;;;;14.40;8.27;;;12.00;61.70;;;;;;4994560;28;20094;-74
2021/04/27 23:10:44;;;;;;;14.27;8.23;;;12.00;61.70;;;;;;4995841;28;20034;-75
2021/04/27 23:13:10;;;;;;;14.65;8.77;;;12.00;62.00;;;;;;4995923;28;20022;-74
2021/04/27 23:15:36;;;;;;;14.85;8.77;;;11.90;62.30;;;;;;4998919;28;20033;-74
2021/04/27 23:18:03;;;;;;;14.88;8.93;;;11.90;63.10;;;;;;5015482;28;20026;-74
2021/04/27 23:20:29;;;;;;;15.73;9.02;;;11.80;62.20;;;;;;5013520;28;20034;-74
2021/04/27 23:22:56;;;;;;;16.60;8.98;;;11.80;62.20;;;;;;5013983;28;20053;-74
2021/04/27 23:25:24;;;;;;;14.63;9.23;;;11.80;62.30;;;;;;5013954;28;20105;-74
2021/04/27 23:27:50;;;;;;;16.63;9.05;;;11.80;62.40;;;;;;5013921;28;20100;-74
2021/04/27 23:30:17;;;;;;;15.38;8.88;;;11.90;61.70;;;;;;5030271;28;20022;-75
2021/04/27 23:32:43;;;;;;;16.35;9.30;;;12.00;61.00;;;;;;5010168;28;20030;-74
2021/04/27 23:35:10;;;;;;;15.75;8.57;;;12.00;60.90;;;;;;5027494;28;20132;-74
2021/04/27 23:37:37;;;;;;;15.57;9.52;;;12.00;61.20;;;;;;5031217;28;20536;-74
2021/04/27 23:40:05;;;;;;;16.45;8.95;;;11.80;61.60;;;;;;5015444;28;20037;-74
2021/04/27 23:42:31;;;;;;;15.05;9.63;;;11.70;62.70;;;;;;5013729;28;20056;-74
2021/04/27 23:44:56;;;;;;;18.35;9.70;;;11.60;63.50;;;;;;5014620;28;20481;-74
2021/04/27 23:47:22;;;;;;;23.63;10.23;;;11.60;64.10;;;;;;5014126;28;20108;-74
2021/04/27 23:49:48;;;;;;;17.98;9.63;;;11.50;64.30;;;;;;5015234;28;20595;-74
2021/04/27 23:52:13;;;;;;;16.42;9.27;;;11.50;64.60;;;;;;5012653;28;20030;-74
2021/04/27 23:54:39;;;;;;;14.65;9.70;;;11.50;64.00;;;;;;5015069;28;20040;-75
2021/04/27 23:57:05;;;;;;;13.35;8.80;;;11.50;63.10;;;;;;5013094;28;20107;-74